Time;durP1;ratioP1;P1;durP2;ratioP2;P2;SDS_P1;SDS_P2;PMS_P1;PMS_P2;Temp;Humidity;BMP_temperature;BMP_pressure;BME280_temperature;BME280_humidity;BME280_pressure;Samples;Min_cycle;Max_cycle;Signal;HPM_P1;HPM_P2
2022/02/12 00:00:30;;;;;;;24.30;15.70;;;;;;;1.93;82.12;99535.79;109397;1273;22469;-51
2022/02/12 00:02:58;;;;;;;24.20;13.90;;;;;;;1.82;82.14;99543.70;109422;1273;23248;-52
2022/02/12 00:05:26;;;;;;;26.40;15.40;;;;;;;1.71;82.20;99550.47;109300;1273;139168;-51
2022/02/12 00:07:55;;;;;;;24.20;13.60;;;;;;;1.58;82.44;99552.84;109402;1273;22492;-53
2022/02/12 00:10:26;;;;;;;21.10;13.00;;;;;;;1.48;82.60;99552.25;109317;1274;137737;-52
2022/02/12 00:12:56;;;;;;;20.00;13.70;;;;;;;1.39;82.97;99552.67;109428;1274;22255;-52
2022/02/12 00:15:24;;;;;;;23.70;13.30;;;;;;;1.35;83.23;99548.02;109410;1273;22418;-52
2022/02/12 00:17:54;;;;;;;21.50;13.00;;;;;;;1.33;83.30;99546.27;109320;1273;137642;-51
2022/02/12 00:20:22;;;;;;;21.60;12.70;;;;;;;1.31;83.64;99542.50;109426;1273;22467;-52
2022/02/12 00:22:49;;;;;;;25.90;14.00;;;;;;;1.29;83.63;99537.51;109320;1273;139188;-52
2022/02/12 00:25:17;;;;;;;22.50;12.60;;;;;;;1.28;84.06;99532.17;109439;1273;23360;-52
2022/02/12 00:27:46;;;;;;;18.60;12.30;;;;;;;1.26;84.20;99530.22;109296;1274;142830;-52
2022/02/12 00:30:14;;;;;;;21.70;12.90;;;;;;;1.23;84.26;99530.03;109407;1273;23359;-52
2022/02/12 00:32:42;;;;;;;20.80;13.90;;;;;;;1.19;84.42;99528.34;109444;1273;23036;-52
2022/02/12 00:35:10;;;;;;;19.90;13.10;;;;;;;1.15;84.42;99528.70;109236;1273;139734;-52
2022/02/12 00:37:39;;;;;;;23.80;14.70;;;;;;;1.11;84.77;99517.73;109400;1273;22343;-52
2022/02/12 00:40:07;;;;;;;23.50;13.80;;;;;;;1.08;85.08;99506.66;109314;1273;139074;-52
2022/02/12 00:42:35;;;;;;;23.00;14.70;;;;;;;1.04;84.95;99502.09;109401;1274;22466;-52
2022/02/12 00:45:06;;;;;;;24.70;14.30;;;;;;;1.00;85.04;99496.71;109432;1274;22576;-52
2022/02/12 00:47:36;;;;;;;30.20;15.10;;;;;;;0.96;85.30;99494.25;109331;1273;140338;-52
2022/02/12 00:50:07;;;;;;;28.50;16.30;;;;;;;0.91;85.77;99491.40;109434;1273;22553;-52
2022/02/12 00:52:35;;;;;;;31.30;16.00;;;;;;;0.89;85.67;99491.17;109324;1273;138035;-52
2022/02/12 00:55:04;;;;;;;25.70;14.40;;;;;;;0.89;85.83;99485.69;109421;1274;22395;-52
2022/02/12 00:57:34;;;;;;;23.10;14.00;;;;;;;0.89;86.01;99476.03;109384;1273;22498;-52
2022/02/12 01:00:04;;;;;;;20.40;13.60;;;;;;;0.85;86.18;99466.61;109317;1273;137712;-51
2022/02/12 01:02:33;;;;;;;19.60;12.90;;;;;;;0.82;86.05;99469.44;109417;1273;22411;-52
2022/02/12 01:05:01;;;;;;;18.20;12.50;;;;;;;0.75;86.69;99467.04;109304;1273;138746;-52
2022/02/12 01:07:29;;;;;;;21.20;12.40;;;;;;;0.73;86.73;99466.25;109400;1273;22472;-51
2022/02/12 01:09:57;;;;;;;168.60;38.00;;;;;;;0.70;86.88;99467.14;109314;1274;139557;-52
2022/02/12 01:12:25;;;;;;;413.70;100.60;;;;;;;0.69;86.98;99471.75;109386;1273;22442;-52
2022/02/12 01:14:53;;;;;;;156.00;36.80;;;;;;;0.69;87.29;99474.11;109431;1273;23110;-51
2022/02/12 01:17:22;;;;;;;389.80;83.00;;;;;;;0.71;87.36;99474.23;109281;1273;140540;-52
2022/02/12 01:19:52;;;;;;;127.10;34.80;;;;;;;0.73;87.35;99475.06;109359;1273;22452;-52
2022/02/12 01:22:20;;;;;;;30.60;13.30;;;;;;;0.74;87.56;99471.67;109305;1274;138515;-52
2022/02/12 01:24:48;;;;;;;63.20;20.50;;;;;;;0.76;87.78;99475.50;109393;1273;22522;-52
2022/02/12 01:27:18;;;;;;;426.80;95.50;;;;;;;0.79;87.48;99474.11;109389;1273;22269;-52
2022/02/12 01:29:45;;;;;;;228.20;57.70;;;;;;;0.80;87.53;99471.48;109302;1273;139084;-52
2022/02/12 01:32:13;;;;;;;25.70;12.30;;;;;;;0.81;87.89;99467.20;109409;1274;23384;-52
2022/02/12 01:34:41;;;;;;;184.00;42.50;;;;;;;0.82;87.80;99467.46;109160;1273;139181;-52
2022/02/12 01:37:10;;;;;;;39.40;15.70;;;;;;;0.83;87.96;99466.98;109396;1274;23189;-52
2022/02/12 01:39:38;;;;;;;16.10;9.10;;;;;;;0.84;88.01;99467.35;109438;1273;23011;-52
2022/02/12 01:42:06;;;;;;;13.10;9.10;;;;;;;0.84;87.67;99455.89;109267;1273;137332;-52
2022/02/12 01:44:35;;;;;;;12.30;9.20;;;;;;;0.83;87.99;99449.31;109414;1273;22523;-52
2022/02/12 01:47:04;;;;;;;18.00;9.30;;;;;;;0.82;87.71;99454.42;109311;1273;138722;-52
2022/02/12 01:49:35;;;;;;;17.50;10.70;;;;;;;0.78;88.00;99450.57;109430;1273;22447;-52
2022/02/12 01:52:08;;;;;;;17.20;10.30;;;;;;;0.80;87.84;99453.45;109308;1273;138346;-51
2022/02/12 01:54:36;;;;;;;20.60;10.30;;;;;;;0.78;88.03;99452.54;109394;1273;22466;-52
2022/02/12 01:57:05;;;;;;;18.90;11.50;;;;;;;0.78;88.21;99452.09;109408;1273;22445;-52
2022/02/12 01:59:33;;;;;;;17.40;10.30;;;;;;;0.76;88.11;99451.91;109355;1273;138272;-51
2022/02/12 02:02:01;;;;;;;17.60;11.60;;;;;;;0.75;88.15;99457.58;109385;1273;22471;-52
2022/02/12 02:04:30;;;;;;;16.60;11.10;;;;;;;0.75;88.32;99462.48;109307;1273;138801;-51
2022/02/12 02:06:58;;;;;;;15.00;10.70;;;;;;;0.74;88.01;99464.47;109161;1273;22424;-52
2022/02/12 02:09:29;;;;;;;16.80;10.80;;;;;;;0.73;88.01;99461.23;109367;1273;23157;-51
2022/02/12 02:11:57;;;;;;;15.70;10.30;;;;;;;0.72;88.39;99457.30;109302;1273;140015;-51
2022/02/12 02:14:41;;;;;;;15.80;10.60;;;;;;;0.70;88.16;99463.18;109419;1273;22465;-52
2022/02/12 02:17:09;;;;;;;17.10;11.10;;;;;;;0.69;88.38;99467.23;109235;1273;138934;-51
2022/02/12 02:19:38;;;;;;;16.60;11.40;;;;;;;0.67;88.56;99464.85;109394;1274;22401;-51
2022/02/12 02:22:06;;;;;;;15.60;10.10;;;;;;;0.70;88.50;99467.55;109327;1273;138743;-51
2022/02/12 02:24:34;;;;;;;16.70;9.40;;;;;;;0.72;88.31;99472.18;109273;1274;23318;-51
2022/02/12 02:27:06;;;;;;;11.60;7.80;;;;;;;0.73;88.90;99475.19;109421;1273;22516;-51
2022/02/12 02:29:37;;;;;;;9.40;6.70;;;;;;;0.76;88.63;99478.46;109338;1273;138836;-51
2022/02/12 02:32:06;;;;;;;9.60;6.60;;;;;;;0.75;88.54;99481.59;109379;1273;22482;-51
2022/02/12 02:34:37;;;;;;;9.50;6.50;;;;;;;0.78;88.66;99485.33;109294;1273;138743;-51
2022/02/12 02:37:05;;;;;;;8.70;6.00;;;;;;;0.77;88.81;99490.39;109452;1273;22411;-51
2022/02/12 02:39:33;;;;;;;9.10;7.00;;;;;;;0.74;88.58;99496.67;109387;1274;22485;-51
2022/02/12 02:42:01;;;;;;;9.50;5.80;;;;;;;0.70;88.49;99502.08;109290;1273;137655;-51
2022/02/12 02:44:29;;;;;;;7.40;4.90;;;;;;;0.67;88.65;99499.04;109394;1274;23453;-51
2022/02/12 02:46:57;;;;;;;6.10;4.00;;;;;;;0.65;88.67;99499.77;109283;1273;138587;-51
2022/02/12 02:49:25;;;;;;;5.40;4.20;;;;;;;0.64;88.66;99507.23;109416;1273;22457;-51
2022/02/12 02:57:26;;;;;;;6.20;4.20;;;;;;;0.56;88.78;99533.14;109418;1273;22503;-51
2022/02/12 02:59:54;;;;;;;8.00;4.60;;;;;;;0.53;89.04;99533.49;109314;1273;138342;-52
2022/02/12 03:02:22;;;;;;;9.80;5.20;;;;;;;0.54;88.91;99537.84;109407;1273;22451;-52
2022/02/12 03:04:50;;;;;;;10.40;5.80;;;;;;;0.56;89.09;99546.59;109303;1273;138864;-51
2022/02/12 03:07:18;;;;;;;13.40;7.20;;;;;;;0.57;88.91;99555.59;109175;1276;22467;-52
2022/02/12 03:09:45;;;;;;;16.00;8.30;;;;;;;0.56;88.83;99563.14;109284;1273;138108;-55
2022/02/12 03:12:14;;;;;;;15.90;7.70;;;;;;;0.57;89.17;99575.22;109396;1273;22403;-52
2022/02/12 03:14:42;;;;;;;13.20;6.40;;;;;;;0.54;88.78;99578.78;109409;1274;22470;-51
2022/02/12 03:17:10;;;;;;;10.20;5.50;;;;;;;0.49;89.02;99576.74;109285;1273;139722;-51
2022/02/12 03:19:38;;;;;;;2.50;1.60;;;;;;;0.45;89.04;99582.27;109423;1273;22464;-51
2022/02/12 03:22:06;;;;;;;3.00;2.10;;;;;;;0.42;89.10;99595.50;109319;1274;138347;-52
2022/02/12 03:24:35;;;;;;;2.00;1.60;;;;;;;0.38;89.33;99602.45;109350;1273;22388;-52
2022/02/12 03:27:03;;;;;;;2.70;1.60;;;;;;;0.31;89.15;99602.66;109315;1273;23301;-52
2022/02/12 03:29:31;;;;;;;1.20;1.00;;;;;;;0.31;89.22;99618.74;109283;1273;138029;-52
2022/02/12 03:31:59;;;;;;;2.40;1.20;;;;;;;0.29;89.45;99619.25;109357;1274;22542;-52
2022/02/12 03:34:27;;;;;;;1.40;1.20;;;;;;;0.27;89.58;99630.25;109301;1273;138092;-52
2022/02/12 03:36:54;;;;;;;1.20;0.90;;;;;;;0.25;89.65;99634.27;109414;1274;22396;-52
2022/02/12 03:39:22;;;;;;;3.10;2.30;;;;;;;0.22;89.90;99635.00;109383;1273;22485;-52
2022/02/12 03:41:50;;;;;;;4.50;2.10;;;;;;;0.20;90.06;99637.83;109299;1273;137658;-52
2022/02/12 03:44:18;;;;;;;3.70;2.30;;;;;;;0.19;90.09;99641.97;109417;1274;22333;-51
2022/02/12 03:46:48;;;;;;;3.40;1.50;;;;;;;0.20;90.37;99649.63;109270;1273;138850;-51
2022/02/12 03:49:17;;;;;;;1.30;1.10;;;;;;;0.21;90.48;99655.58;109389;1273;22531;-51
2022/02/12 03:51:45;;;;;;;2.00;1.40;;;;;;;0.20;90.39;99659.98;109417;1273;23248;-51
2022/02/12 03:54:13;;;;;;;3.40;2.10;;;;;;;0.22;90.52;99670.84;109291;1274;137804;-53
2022/02/12 03:56:42;;;;;;;1.40;1.20;;;;;;;0.21;90.92;99683.15;109412;1274;23638;-52
2022/02/12 03:59:10;;;;;;;1.80;1.20;;;;;;;0.23;90.93;99696.03;109341;1274;137834;-52
2022/02/12 04:01:38;;;;;;;2.40;1.10;;;;;;;0.23;91.13;99699.58;109372;1273;23227;-52
2022/02/12 04:04:06;;;;;;;1.90;1.10;;;;;;;0.25;90.75;99717.33;109326;1274;137840;-52
2022/02/12 04:06:34;;;;;;;3.80;1.20;;;;;;;0.25;91.10;99719.27;109392;1273;22911;-52
2022/02/12 04:09:03;;;;;;;1.20;1.00;;;;;;;0.27;90.78;99731.09;109417;1273;22514;-52
2022/02/12 04:11:31;;;;;;;1.80;1.20;;;;;;;0.27;91.02;99735.21;109322;1273;137782;-52
2022/02/12 04:13:59;;;;;;;2.20;1.20;;;;;;;0.25;90.56;99737.45;109436;1274;23086;-52
2022/02/12 04:16:28;;;;;;;2.00;1.30;;;;;;;0.24;90.85;99739.94;109290;1273;138447;-52
2022/02/12 04:18:56;;;;;;;2.10;1.00;;;;;;;0.22;90.82;99743.14;109429;1273;23235;-52
2022/02/12 04:21:25;;;;;;;1.70;0.80;;;;;;;0.24;91.02;99752.47;109402;1273;22437;-52
2022/02/12 04:23:52;;;;;;;1.50;1.20;;;;;;;0.24;90.90;99763.48;109269;1274;138067;-52
2022/02/12 04:26:20;;;;;;;3.10;1.90;;;;;;;0.23;91.15;99768.09;109420;1274;23754;-52
2022/02/12 04:28:49;;;;;;;1.80;1.30;;;;;;;0.23;91.10;99778.43;109281;1273;138285;-52
2022/02/12 04:31:17;;;;;;;1.70;1.10;;;;;;;0.24;91.22;99778.49;109409;1273;22438;-51
2022/02/12 04:33:45;;;;;;;2.50;2.30;;;;;;;0.23;91.13;99781.14;109387;1273;22398;-51
2022/02/12 04:36:13;;;;;;;2.60;1.40;;;;;;;0.25;91.09;99787.45;109282;1273;140123;-52
2022/02/12 04:38:41;;;;;;;2.10;1.30;;;;;;;0.25;94.71;99794.80;109399;1274;22559;-51
2022/02/12 04:41:09;;;;;;;1.80;1.20;;;;;;;0.24;95.17;99798.82;109212;1273;138504;-52
2022/02/12 04:43:57;;;;;;;2.80;1.30;;;;;;;0.23;95.14;99809.02;109318;1273;22438;-51
2022/02/12 04:46:26;;;;;;;3.20;1.50;;;;;;;0.22;95.03;99812.91;109155;1274;138085;-51
2022/02/12 04:48:54;;;;;;;4.40;2.60;;;;;;;0.22;94.22;99821.08;109393;1274;22441;-51
2022/02/12 04:51:22;;;;;;;4.20;2.40;;;;;;;0.22;92.60;99827.61;109353;1273;22496;-51
2022/02/12 04:53:51;;;;;;;2.90;1.90;;;;;;;0.23;92.19;99831.52;109261;1273;137782;-52
2022/02/12 04:56:19;;;;;;;2.90;1.50;;;;;;;0.24;91.95;99840.61;109372;1274;22439;-51
2022/02/12 04:58:48;;;;;;;2.40;1.40;;;;;;;0.24;92.09;99845.18;109254;1273;138029;-51
2022/02/12 05:01:22;;;;;;;1.20;0.90;;;;;;;0.24;92.01;99852.45;109393;1273;22937;-51
2022/02/12 05:03:51;;;;;;;1.50;0.90;;;;;;;0.27;92.05;99858.02;109061;1276;138365;-53
2022/02/12 05:06:20;;;;;;;3.00;0.90;;;;;;;0.26;92.14;99864.91;109453;1271;22397;-52
2022/02/12 05:08:48;;;;;;;2.20;0.90;;;;;;;0.26;92.18;99868.48;109477;1274;22503;-51
2022/02/12 05:11:16;;;;;;;1.10;0.80;;;;;;;0.25;92.12;99872.52;109397;1274;137640;-52
2022/02/12 05:13:44;;;;;;;5.10;1.00;;;;;;;0.23;92.25;99880.25;109475;1274;22451;-52
2022/02/12 05:16:13;;;;;;;1.80;1.10;;;;;;;0.23;91.97;99889.08;109357;1274;139136;-52
2022/02/12 05:18:41;;;;;;;3.10;1.30;;;;;;;0.26;92.16;99890.31;109526;1273;22303;-52
2022/02/12 05:21:09;;;;;;;2.10;1.50;;;;;;;0.27;92.26;99895.36;109450;1274;23564;-52
2022/02/12 05:23:37;;;;;;;4.10;1.80;;;;;;;0.26;92.43;99902.91;109379;1274;137746;-52
2022/02/12 05:26:05;;;;;;;2.50;1.80;;;;;;;0.24;92.16;99906.73;109464;1274;23228;-52
2022/02/12 05:28:33;;;;;;;1.60;1.20;;;;;;;0.23;92.05;99906.88;109351;1274;138673;-52
2022/02/12 05:31:01;;;;;;;2.20;1.10;;;;;;;0.23;92.25;99909.55;109473;1274;22494;-51
2022/02/12 05:33:29;;;;;;;1.30;1.20;;;;;;;0.23;92.03;99915.32;109467;1274;22386;-51
2022/02/12 05:35:57;;;;;;;4.90;1.30;;;;;;;0.23;92.16;99924.36;109398;1273;138478;-51
2022/02/12 05:38:25;;;;;;;2.50;1.10;;;;;;;0.22;92.30;99929.86;109484;1274;23270;-51
2022/02/12 05:40:53;;;;;;;2.50;1.30;;;;;;;0.23;92.14;99937.77;109360;1274;138699;-54
2022/02/12 05:43:21;;;;;;;1.40;1.10;;;;;;;0.25;92.11;99944.81;109400;1273;23279;-53
2022/02/12 05:45:49;;;;;;;1.60;1.10;;;;;;;0.26;92.33;99950.87;109420;1274;23162;-53
2022/02/12 05:48:17;;;;;;;2.90;1.30;;;;;;;0.27;92.42;99955.48;109288;1274;137504;-53
2022/02/12 05:50:47;;;;;;;1.70;1.00;;;;;;;0.28;92.39;99956.64;109391;1273;22449;-54
2022/02/12 05:53:15;;;;;;;1.50;1.10;;;;;;;0.27;92.24;99967.48;109317;1273;138481;-53
2022/02/12 05:55:42;;;;;;;2.20;1.00;;;;;;;0.25;92.41;99971.77;109352;1274;22557;-53
2022/02/12 05:58:10;;;;;;;1.50;1.20;;;;;;;0.24;92.21;99975.33;109288;1273;138975;-53
2022/02/12 06:00:38;;;;;;;1.50;1.40;;;;;;;0.24;92.20;99984.28;109439;1273;22424;-53
2022/02/12 06:03:06;;;;;;;1.10;1.00;;;;;;;0.26;92.11;99985.34;109388;1273;22479;-53
2022/02/12 06:05:35;;;;;;;1.80;1.20;;;;;;;0.27;91.82;99988.52;109318;1273;137734;-53
2022/02/12 06:08:05;;;;;;;1.50;1.30;;;;;;;0.29;91.98;99993.26;109435;1273;23075;-53
2022/02/12 06:10:34;;;;;;;3.80;1.80;;;;;;;0.31;92.00;99994.48;109288;1273;137800;-53
2022/02/12 06:13:02;;;;;;;4.10;2.30;;;;;;;0.32;91.78;100003.09;109347;1273;22510;-53
2022/02/12 06:15:36;;;;;;;3.40;2.10;;;;;;;0.34;92.13;100004.11;109406;1273;22506;-53
2022/02/12 06:18:05;;;;;;;5.70;3.10;;;;;;;0.36;91.96;100011.64;109135;1274;138013;-53
2022/02/12 06:20:33;;;;;;;4.50;2.60;;;;;;;0.35;91.68;100018.35;109401;1274;23079;-53
2022/02/12 06:23:02;;;;;;;4.50;3.30;;;;;;;0.35;91.95;100019.71;109231;1275;138755;-53
2022/02/12 06:25:30;;;;;;;5.30;3.40;;;;;;;0.37;91.90;100024.20;109152;1276;22447;-53
2022/02/12 06:27:58;;;;;;;4.20;2.90;;;;;;;0.40;91.90;100032.95;109229;1276;138565;-53
2022/02/12 06:30:26;;;;;;;4.80;3.10;;;;;;;0.43;92.09;100041.38;109328;1274;23111;-53
2022/02/12 06:32:59;;;;;;;5.20;2.90;;;;;;;0.43;91.91;100037.75;109278;1276;22436;-56
2022/02/12 06:35:27;;;;;;;4.90;3.10;;;;;;;0.44;92.02;100042.33;109055;1277;137817;-53
2022/02/12 06:37:56;;;;;;;4.30;2.70;;;;;;;0.46;92.08;100046.06;109019;1277;22585;-53
2022/02/12 06:40:24;;;;;;;6.00;3.30;;;;;;;0.47;92.10;100047.16;109193;1274;140120;-52
2022/02/12 06:42:52;;;;;;;5.40;3.00;;;;;;;0.52;92.09;100056.71;109341;1274;22536;-51
2022/02/12 06:45:21;;;;;;;3.50;2.60;;;;;;;0.56;92.20;100061.31;109416;1274;22899;-51
2022/02/12 06:47:49;;;;;;;5.40;3.40;;;;;;;0.58;91.95;100067.48;109204;1276;138824;-51
2022/02/12 06:50:17;;;;;;;7.50;5.10;;;;;;;0.60;91.67;100072.41;109369;1275;22469;-51
2022/02/12 06:52:48;;;;;;;11.20;6.90;;;;;;;0.60;91.96;100075.27;109254;1273;140366;-51
2022/02/12 06:55:16;;;;;;;11.90;6.20;;;;;;;0.64;91.74;100079.47;109190;1276;23360;-51
2022/02/12 06:57:44;;;;;;;7.20;4.20;;;;;;;0.61;91.69;100077.40;109306;1274;22429;-51
2022/02/12 07:00:12;;;;;;;6.20;4.00;;;;;;;0.63;92.02;100090.06;109059;1276;138587;-51
2022/02/12 07:02:40;;;;;;;5.10;3.40;;;;;;;0.64;91.70;100096.92;109277;1275;22468;-51
2022/02/12 07:05:08;;;;;;;6.60;4.10;;;;;;;0.67;91.69;100106.19;109145;1274;139168;-51
2022/02/12 07:07:44;;;;;;;9.10;4.50;;;;;;;0.69;91.59;100110.14;109275;1274;22271;-51
2022/02/12 07:10:13;;;;;;;5.90;2.60;;;;;;;0.68;91.64;100121.70;109144;1275;140325;-51
2022/02/12 07:12:41;;;;;;;3.30;2.80;;;;;;;0.65;91.21;100119.71;109324;1275;22507;-51
2022/02/12 07:15:09;;;;;;;5.80;3.90;;;;;;;0.64;90.77;100120.89;109230;1275;22606;-51
2022/02/12 07:17:41;;;;;;;6.50;3.60;;;;;;;0.64;91.10;100128.36;109165;1274;139446;-51
2022/02/12 07:20:11;;;;;;;7.90;4.50;;;;;;;0.62;90.73;100130.78;109267;1276;23373;-51
2022/02/12 07:22:40;;;;;;;6.60;3.70;;;;;;;0.61;91.13;100140.95;109236;1274;139052;-51
2022/02/12 07:25:14;;;;;;;4.20;2.90;;;;;;;0.60;90.83;100146.05;109420;1274;22495;-51
2022/02/12 07:27:42;;;;;;;6.10;3.60;;;;;;;0.57;91.11;100149.92;109262;1276;23214;-51
2022/02/12 07:30:16;;;;;;;5.00;3.40;;;;;;;0.63;90.51;100164.57;109020;1276;138954;-51
2022/02/12 07:32:44;;;;;;;3.70;2.70;;;;;;;0.66;90.82;100169.45;109150;1274;22405;-51
2022/02/12 07:35:13;;;;;;;3.50;2.60;;;;;;;0.69;90.62;100173.96;109262;1274;139703;-51
2022/02/12 07:37:47;;;;;;;4.20;2.90;;;;;;;0.70;90.71;100174.16;109369;1274;22495;-51
2022/02/12 07:40:16;;;;;;;4.80;3.30;;;;;;;0.72;90.67;100177.71;109240;1274;137944;-51
2022/02/12 07:42:45;;;;;;;9.40;4.40;;;;;;;0.74;90.58;100185.73;109407;1274;22532;-52
2022/02/12 07:45:13;;;;;;;4.70;2.90;;;;;;;0.73;90.45;100190.10;109345;1274;22452;-51
2022/02/12 07:47:42;;;;;;;7.90;5.60;;;;;;;0.73;90.24;100193.40;109250;1274;139538;-51
2022/02/12 07:50:11;;;;;;;5.10;3.60;;;;;;;0.74;90.01;100195.89;109371;1274;23303;-51
2022/02/12 07:52:41;;;;;;;8.20;3.70;;;;;;;0.77;90.13;100198.60;109243;1274;138196;-51
2022/02/12 07:55:11;;;;;;;7.40;3.90;;;;;;;0.81;89.97;100199.59;109338;1274;22388;-51
2022/02/12 07:57:39;;;;;;;5.30;3.30;;;;;;;0.83;90.10;100199.55;109354;1275;23246;-51
2022/02/12 08:00:11;;;;;;;6.10;3.90;;;;;;;0.81;89.76;100202.06;109227;1274;138211;-51
2022/02/12 08:02:39;;;;;;;5.30;3.60;;;;;;;0.84;89.84;100215.36;109297;1275;22578;-51
2022/02/12 08:05:08;;;;;;;6.60;3.30;;;;;;;0.83;89.24;100213.86;109208;1274;138793;-51
2022/02/12 08:07:42;;;;;;;4.30;2.80;;;;;;;0.81;89.21;100218.40;109268;1274;22275;-51
2022/02/12 08:12:59;;;;;;;7.20;4.60;;;;;;;0.73;89.07;100223.70;109355;1274;22562;-51
2022/02/12 08:15:27;;;;;;;7.50;4.00;;;;;;;0.77;89.14;100238.29;109315;1275;23164;-51
2022/02/12 08:17:56;;;;;;;5.60;3.80;;;;;;;0.77;89.26;100246.10;109186;1274;137955;-52
2022/02/12 08:20:24;;;;;;;5.90;3.90;;;;;;;0.76;89.02;100246.28;109420;1274;22486;-51
2022/02/12 08:22:54;;;;;;;8.30;4.10;;;;;;;0.79;88.94;100249.68;109294;1274;138140;-51
2022/02/12 08:25:22;;;;;;;9.80;5.50;;;;;;;0.80;89.06;100253.27;109390;1274;22440;-51
2022/02/12 08:27:49;;;;;;;10.90;3.90;;;;;;;0.83;88.99;100262.98;109421;1274;22475;-51
2022/02/12 08:30:17;;;;;;;11.30;5.00;;;;;;;0.82;88.78;100266.30;109197;1276;138308;-51
2022/02/12 08:32:45;;;;;;;7.90;4.20;;;;;;;0.79;88.91;100264.57;109359;1274;22632;-51
2022/02/12 08:35:14;;;;;;;10.80;4.60;;;;;;;0.77;88.50;100273.90;109344;1274;138447;-51
2022/02/12 08:37:44;;;;;;;9.40;4.30;;;;;;;0.72;88.58;100272.52;109449;1274;22502;-51
2022/02/12 08:40:20;;;;;;;10.60;4.40;;;;;;;0.71;88.28;100279.05;109357;1274;139618;-51
2022/02/12 08:42:48;;;;;;;8.00;4.20;;;;;;;0.71;88.76;100282.63;109507;1274;22483;-51
2022/02/12 08:45:17;;;;;;;10.10;3.60;;;;;;;0.72;88.46;100292.76;109462;1274;22460;-51
2022/02/12 08:47:44;;;;;;;10.20;4.50;;;;;;;0.72;88.43;100302.49;109368;1274;139110;-51
2022/02/12 08:50:14;;;;;;;10.60;5.00;;;;;;;0.70;87.83;100312.40;109396;1274;22454;-51
2022/02/12 08:52:43;;;;;;;23.10;10.60;;;;;;;0.68;87.84;100315.32;109333;1274;138800;-51
2022/02/12 08:55:11;;;;;;;8.60;4.10;;;;;;;0.68;88.05;100320.96;109367;1275;22489;-51
2022/02/12 08:57:40;;;;;;;7.90;4.40;;;;;;;0.71;87.92;100327.35;109354;1274;22514;-51
2022/02/12 09:00:10;;;;;;;5.00;3.60;;;;;;;0.73;87.93;100327.48;109252;1274;137868;-51
2022/02/12 09:02:57;;;;;;;6.80;3.70;;;;;;;0.75;87.91;100328.61;109351;1275;22518;-52
2022/02/12 09:05:26;;;;;;;7.20;3.30;;;;;;;0.78;87.38;100334.60;109290;1276;151866;-51
2022/02/12 09:07:54;;;;;;;10.00;3.40;;;;;;;0.79;87.18;100333.73;109389;1275;23519;-51
2022/02/12 09:10:22;;;;;;;11.20;4.20;;;;;;;0.82;87.29;100342.02;109248;1275;139629;-51
2022/02/12 09:12:50;;;;;;;6.60;3.20;;;;;;;0.83;86.94;100345.93;109379;1275;22465;-51
2022/02/12 09:15:18;;;;;;;13.30;4.70;;;;;;;0.83;86.40;100347.34;109363;1276;22413;-51
2022/02/12 09:17:47;;;;;;;12.30;5.00;;;;;;;0.84;86.59;100353.34;109137;1276;138061;-51
2022/02/12 09:20:14;;;;;;;11.00;4.70;;;;;;;0.89;86.58;100354.94;109515;1274;22429;-51
2022/02/12 09:22:43;;;;;;;7.50;4.00;;;;;;;0.92;86.25;100357.41;109372;1274;138495;-52
2022/02/12 09:25:12;;;;;;;7.60;4.20;;;;;;;0.96;86.03;100359.52;109468;1274;23240;-51
2022/02/12 09:27:40;;;;;;;7.50;3.20;;;;;;;0.96;85.71;100361.45;109469;1274;22461;-52
2022/02/12 09:30:10;;;;;;;6.50;3.10;;;;;;;1.00;85.62;100365.98;109259;1274;140029;-51
2022/02/12 09:32:38;;;;;;;7.10;3.60;;;;;;;1.05;85.66;100373.30;109443;1274;22418;-51
2022/02/12 09:37:13;;;;;;;8.30;3.50;;;;;;;1.15;85.74;100380.58;102519;1306;545365;-52
2022/02/12 09:39:42;;;;;;;9.50;3.50;;;;;;;1.16;85.36;100382.23;104543;1283;23991;-52
2022/02/12 09:42:10;;;;;;;7.60;3.90;;;;;;;1.18;85.30;100383.96;104494;1286;138424;-51
2022/02/12 09:44:40;;;;;;;9.80;3.80;;;;;;;1.20;85.55;100390.90;108338;1285;23734;-52
2022/02/12 09:47:24;;;;;;;9.60;3.90;;;;;;;1.24;85.46;100389.69;108263;1286;139687;-52
2022/02/12 09:49:54;;;;;;;9.60;3.80;;;;;;;1.30;85.43;100394.59;108227;1284;149777;-52
2022/02/12 09:52:22;;;;;;;10.00;3.80;;;;;;;1.32;85.01;100398.55;108150;1285;137814;-52
2022/02/12 09:54:50;;;;;;;8.90;3.40;;;;;;;1.35;85.05;100399.55;108528;1282;23026;-52
2022/02/12 09:57:18;;;;;;;10.20;4.50;;;;;;;1.40;85.14;100405.34;108936;1280;22426;-52
2022/02/12 09:59:46;;;;;;;5.50;3.10;;;;;;;1.44;85.17;100404.89;108686;1281;137695;-52
2022/02/12 10:02:17;;;;;;;8.60;3.90;;;;;;;1.52;85.29;100408.98;108952;1278;22898;-52
2022/02/12 10:04:45;;;;;;;7.90;3.70;;;;;;;1.58;85.00;100415.98;108720;1281;138702;-52
2022/02/12 10:07:23;;;;;;;9.00;3.70;;;;;;;1.61;84.78;100419.55;108768;1281;22491;-52
2022/02/12 10:10:13;;;;;;;10.20;4.10;;;;;;;1.58;84.48;100426.52;108953;1280;24400;-52
2022/02/12 10:12:41;;;;;;;11.50;3.30;;;;;;;1.55;83.75;100426.95;108896;1280;22416;-52
2022/02/12 10:15:29;;;;;;;9.50;4.00;;;;;;;1.49;83.54;100429.52;108895;1280;22461;-52
2022/02/12 10:17:58;;;;;;;12.30;3.90;;;;;;;1.45;83.61;100436.80;108799;1280;138642;-52
2022/02/12 10:20:33;;;;;;;11.70;3.40;;;;;;;1.44;83.70;100441.98;108894;1280;22723;-52
2022/02/12 10:23:15;;;;;;;11.70;3.80;;;;;;;1.43;83.54;100442.84;108810;1280;137907;-52
2022/02/12 10:25:48;;;;;;;8.90;3.30;;;;;;;1.39;83.00;100453.30;108928;1280;23082;-52
2022/02/12 10:28:17;;;;;;;9.80;3.80;;;;;;;1.35;82.42;100455.35;108935;1280;22490;-52
2022/02/12 10:30:46;;;;;;;6.90;2.60;;;;;;;1.34;82.24;100456.90;108792;1280;137631;-52
2022/02/12 10:33:14;;;;;;;8.30;3.30;;;;;;;1.33;81.85;100464.69;108717;1281;22425;-52
2022/02/12 10:35:59;;;;;;;5.40;3.10;;;;;;;1.31;82.04;100462.82;108788;1279;137565;-52
2022/02/12 10:38:29;;;;;;;12.00;4.60;;;;;;;1.30;81.77;100464.67;108899;1279;22527;-52
2022/02/12 10:41:12;;;;;;;11.20;4.00;;;;;;;1.32;81.72;100467.80;108748;1281;138863;-52
2022/02/12 10:43:40;;;;;;;10.40;4.20;;;;;;;1.37;81.99;100470.11;109010;1279;22568;-52
2022/02/12 10:46:08;;;;;;;10.30;3.60;;;;;;;1.43;81.18;100475.80;109022;1280;22434;-52
2022/02/12 10:48:37;;;;;;;7.70;3.50;;;;;;;1.46;81.10;100484.02;108673;1281;138119;-52
2022/02/12 10:51:11;;;;;;;7.20;2.60;;;;;;;1.48;81.18;100490.52;108906;1280;22522;-52
2022/02/12 10:54:12;;;;;;;12.80;4.30;;;;;;;1.48;79.62;100497.70;105916;1280;138437;-50
2022/02/12 10:56:46;;;;;;;8.10;3.80;;;;;;;1.47;79.51;100491.94;104018;1288;22579;-50
2022/02/12 10:59:15;;;;;;;6.90;3.50;;;;;;;1.48;79.48;100497.51;107914;1286;138412;-51
2022/02/12 11:01:43;;;;;;;11.50;3.20;;;;;;;1.50;78.70;100498.27;108222;1286;23190;-51
2022/02/12 11:04:13;;;;;;;8.60;2.80;;;;;;;1.50;78.04;100502.91;108225;1286;22561;-51
2022/02/12 11:06:41;;;;;;;5.40;2.70;;;;;;;1.49;78.62;100503.52;108120;1286;138773;-51
2022/02/12 11:09:10;;;;;;;6.70;2.70;;;;;;;1.49;78.47;100510.70;108223;1286;22307;-51
2022/02/12 11:11:38;;;;;;;6.40;2.90;;;;;;;1.49;78.83;100516.91;108122;1286;139256;-51
2022/02/12 11:14:06;;;;;;;6.60;4.10;;;;;;;1.50;79.00;100521.00;108221;1286;22472;-51
2022/02/12 11:16:35;;;;;;;5.50;3.00;;;;;;;1.50;79.25;100517.58;107975;1287;138961;-52
2022/02/12 11:19:04;;;;;;;10.20;4.00;;;;;;;1.48;79.47;100517.01;108223;1286;22439;-51
2022/02/12 11:21:37;;;;;;;9.90;4.20;;;;;;;1.45;79.54;100513.77;108230;1285;22501;-51
2022/02/12 11:24:08;;;;;;;8.10;3.70;;;;;;;1.46;79.91;100521.38;108119;1286;138378;-51
2022/02/12 11:26:43;;;;;;;7.40;3.80;;;;;;;1.47;80.21;100529.49;108197;1286;22517;-52
2022/02/12 11:29:30;;;;;;;8.20;3.80;;;;;;;1.49;79.89;100532.15;108116;1286;139435;-51
2022/02/12 11:32:11;;;;;;;5.60;3.30;;;;;;;1.50;79.23;100532.55;108406;1280;23000;-51
2022/02/12 11:34:54;;;;;;;7.00;3.30;;;;;;;1.51;78.96;100542.27;108604;1281;139582;-51
2022/02/12 11:37:22;;;;;;;7.60;3.10;;;;;;;1.53;77.85;100548.35;108804;1280;23195;-51
2022/02/12 11:40:17;;;;;;;8.80;3.50;;;;;;;1.50;77.71;100548.66;108639;1281;22506;-51
2022/02/12 11:42:47;;;;;;;8.30;4.00;;;;;;;1.48;77.59;100547.29;108870;1280;137063;-52